Time;durP1;ratioP1;P1;durP2;ratioP2;P2;SDS_P1;SDS_P2;PMS_P1;PMS_P2;Temp;Humidity;BMP_temperature;BMP_pressure;BME280_temperature;BME280_humidity;BME280_pressure;Samples;Min_cycle;Max_cycle;Signal;HPM_P1;HPM_P2
2021/12/21 00:00:17;;;;;;;;;;;2.50;99.90;;;;;;5107725;28;19935;-83
2021/12/21 00:02:44;;;;;;;;;;;2.40;99.90;;;;;;5107034;28;19928;-82
2021/12/21 00:05:17;;;;;;;;;;;2.50;99.90;;;;;;5106840;28;19946;-83
2021/12/21 00:07:43;;;;;;;;;;;2.50;99.90;;;;;;5106209;28;19924;-83
2021/12/21 00:10:10;;;;;;;;;;;2.50;99.90;;;;;;5107017;28;19931;-82
2021/12/21 00:12:46;;;;;;;;;;;2.50;99.90;;;;;;5107137;28;20314;-83
2021/12/21 00:15:21;;;;;;;;;;;2.30;99.90;;;;;;5114873;28;19930;-82
2021/12/21 00:17:54;;;;;;;;;;;2.70;99.90;;;;;;5115794;28;19931;-82
2021/12/21 00:20:33;;;;;;;;;;;2.30;99.90;;;;;;5109496;28;19931;-82
2021/12/21 00:23:29;;;;;;;;;;;2.30;99.90;;;;;;5106762;28;19924;-83
2021/12/21 00:25:55;;;;;;;;;;;2.30;99.90;;;;;;5109373;28;19978;-84
2021/12/21 00:28:24;;;;;;;;;;;2.40;99.90;;;;;;5108878;28;19931;-83
2021/12/21 00:30:51;;;;;;;;;;;2.30;99.90;;;;;;5107402;28;19924;-83
2021/12/21 00:33:18;;;;;;;;;;;2.30;99.90;;;;;;5107362;28;19928;-82
2021/12/21 00:35:44;;;;;;;;;;;2.20;99.90;;;;;;5104442;28;19931;-83
2021/12/21 00:38:11;;;;;;;;;;;2.20;99.90;;;;;;5105325;28;19924;-82
2021/12/21 00:40:37;;;;;;;;;;;2.20;99.90;;;;;;5107154;28;19945;-83
2021/12/21 00:43:04;;;;;;;;;;;2.20;99.90;;;;;;5104983;28;19924;-82
2021/12/21 00:45:32;;;;;;;;;;;2.20;99.90;;;;;;5105404;28;19924;-83
2021/12/21 00:47:58;;;;;;;;;;;2.20;99.90;;;;;;5106207;28;19932;-82
2021/12/21 00:50:25;;;;;;;;;;;2.20;99.90;;;;;;5107811;28;19977;-82
2021/12/21 00:52:53;;;;;;;;;;;2.20;99.90;;;;;;5108146;28;19924;-83
2021/12/21 00:55:19;;;;;;;;;;;2.30;99.90;;;;;;5115116;28;19924;-82
2021/12/21 00:57:46;;;;;;;;;;;2.40;99.90;;;;;;5115498;28;19924;-82
2021/12/21 01:00:15;;;;;;;;;;;2.30;99.90;;;;;;5114948;28;19908;-82
2021/12/21 01:02:43;;;;;;;;;;;2.30;99.90;;;;;;5115363;28;19946;-82
2021/12/21 01:05:17;;;;;;;;;;;2.20;99.90;;;;;;5115871;28;19928;-81
2021/12/21 01:07:50;;;;;;;;;;;2.20;99.90;;;;;;5111342;28;19967;-82
2021/12/21 01:10:46;;;;;;;;;;;2.20;99.90;;;;;;5117191;28;19927;-83
2021/12/21 01:13:26;;;;;;;;;;;2.10;99.90;;;;;;5107112;28;19952;-83
2021/12/21 01:16:03;;;;;;;;;;;2.10;99.90;;;;;;5105955;28;19964;-83
2021/12/21 01:18:37;;;;;;;;;;;2.00;99.90;;;;;;5104860;28;19931;-82
2021/12/21 01:21:09;;;;;;;;;;;2.00;99.90;;;;;;5105716;28;20268;-82
2021/12/21 01:24:07;;;;;;;;;;;1.90;99.90;;;;;;5105591;28;19924;-82
2021/12/21 01:26:42;;;;;;;;;;;1.90;99.90;;;;;;5105560;28;19974;-82
2021/12/21 01:29:18;;;;;;;;;;;1.90;99.90;;;;;;5105591;28;20004;-83
2021/12/21 01:31:52;;;;;;;;;;;2.00;99.90;;;;;;5116310;28;19924;-82
2021/12/21 01:34:33;;;;;;;;;;;2.00;99.90;;;;;;5118470;28;19983;-81
2021/12/21 01:37:04;;;;;;;;;;;2.00;99.90;;;;;;5118412;28;19908;-81
2021/12/21 01:42:19;;;;;;;;;;;2.00;99.90;;;;;;5114666;28;19904;-81
2021/12/21 01:50:12;;;;;;;;;;;2.00;99.90;;;;;;5116597;28;19931;-82
2021/12/21 01:52:39;;;;;;;;;;;2.00;99.90;;;;;;5106970;28;19931;-82
2021/12/21 01:55:07;;;;;;;;;;;1.90;99.90;;;;;;5105645;28;21246;-83
2021/12/21 01:57:34;;;;;;;;;;;1.90;99.90;;;;;;5106320;28;19924;-83
2021/12/21 02:00:00;;;;;;;;;;;1.90;99.90;;;;;;5104934;28;19973;-82
2021/12/21 02:02:27;;;;;;;;;;;1.90;99.90;;;;;;5103542;28;20061;-83
2021/12/21 02:04:53;;;;;;;;;;;1.90;99.90;;;;;;5104340;28;19924;-82
2021/12/21 02:07:21;;;;;;;;;;;1.90;99.90;;;;;;5104899;28;19924;-83
2021/12/21 02:09:47;;;;;;;;;;;1.90;99.90;;;;;;5106920;28;20352;-82
2021/12/21 02:12:16;;;;;;;;;;;2.10;99.90;;;;;;5107160;28;19924;-82
2021/12/21 02:14:43;;;;;;;;;;;1.80;99.90;;;;;;5106526;28;20011;-82
2021/12/21 02:17:31;;;;;;;;;;;2.00;99.90;;;;;;5104708;28;20415;-82
2021/12/21 02:20:07;;;;;;;;;;;1.90;99.90;;;;;;5105075;28;19986;-82
2021/12/21 02:22:38;;;;;;;;;;;2.00;99.90;;;;;;5104621;28;20379;-82
2021/12/21 02:25:21;;;;;;;;;;;1.80;99.90;;;;;;5104781;28;19924;-83
2021/12/21 02:27:56;;;;;;;;;;;2.00;99.90;;;;;;5104350;28;19924;-83
2021/12/21 02:30:23;;;;;;;;;;;2.00;99.90;;;;;;5104642;28;19978;-83
2021/12/21 02:32:49;;;;;;;;;;;2.00;99.90;;;;;;5104335;28;19989;-83
2021/12/21 02:35:18;;;;;;;;;;;2.00;99.90;;;;;;5103682;28;19924;-83
2021/12/21 02:37:44;;;;;;;;;;;2.00;99.90;;;;;;5103927;28;19924;-83
2021/12/21 02:40:11;;;;;;;;;;;2.00;99.90;;;;;;5104272;28;19924;-83
2021/12/21 02:42:37;;;;;;;;;;;2.10;99.90;;;;;;5104070;28;20348;-83
2021/12/21 02:45:05;;;;;;;;;;;2.10;99.90;;;;;;5104126;28;19924;-82
2021/12/21 02:47:31;;;;;;;;;;;2.10;99.90;;;;;;5105449;28;19946;-82
2021/12/21 02:49:59;;;;;;;;;;;2.10;99.90;;;;;;5105309;28;19924;-82
2021/12/21 02:52:27;;;;;;;;;;;2.10;99.90;;;;;;5103959;28;19924;-82
2021/12/21 02:54:53;;;;;;;;;;;2.10;99.90;;;;;;5104173;28;20404;-83
2021/12/21 02:57:20;;;;;;;;;;;2.20;99.90;;;;;;5105018;28;20492;-83
2021/12/21 02:59:46;;;;;;;;;;;2.20;99.90;;;;;;5116367;28;19908;-83
2021/12/21 03:02:13;;;;;;;;;;;2.20;99.90;;;;;;5118062;28;19931;-82
2021/12/21 03:04:42;;;;;;;;;;;2.20;99.90;;;;;;5118881;28;19921;-82
2021/12/21 03:07:47;;;;;;;;;;;2.20;99.90;;;;;;5119029;28;19915;-83
2021/12/21 03:10:15;;;;;;;;;;;2.10;99.90;;;;;;5118813;28;19912;-82
2021/12/21 03:15:27;;;;;;;;;;;2.20;99.90;;;;;;5110007;28;19924;-82
2021/12/21 03:17:54;;;;;;;;;;;2.10;99.90;;;;;;5111719;28;19924;-82
2021/12/21 03:20:21;;;;;;;;;;;2.10;99.90;;;;;;5107775;28;19924;-82
2021/12/21 03:22:48;;;;;;;;;;;2.10;99.90;;;;;;5105747;28;19970;-82
2021/12/21 03:25:16;;;;;;;;;;;2.10;99.90;;;;;;5104875;28;19924;-83
2021/12/21 03:27:42;;;;;;;;;;;2.30;99.90;;;;;;5103948;28;19963;-83
2021/12/21 03:30:12;;;;;;;;;;;2.20;99.90;;;;;;5108079;28;19923;-82
2021/12/21 03:32:40;;;;;;;;;;;2.20;99.90;;;;;;5108557;28;19969;-81
2021/12/21 03:35:08;;;;;;;;;;;2.10;99.90;;;;;;5112933;28;19955;-82
2021/12/21 03:37:34;;;;;;;;;;;2.10;99.90;;;;;;5114951;28;19924;-83
2021/12/21 03:40:03;;;;;;;;;;;2.10;99.90;;;;;;5112269;28;19924;-83
2021/12/21 03:42:31;;;;;;;;;;;2.10;99.90;;;;;;5108917;28;19963;-82
2021/12/21 03:44:58;;;;;;;;;;;2.10;99.90;;;;;;5108838;28;19925;-82
2021/12/21 03:47:25;;;;;;;;;;;2.00;99.90;;;;;;5109046;28;19991;-82
2021/12/21 03:49:55;;;;;;;;;;;2.10;99.90;;;;;;5108135;28;20067;-82
2021/12/21 03:52:23;;;;;;;;;;;2.00;99.90;;;;;;5107696;28;19994;-82
2021/12/21 03:54:50;;;;;;;;;;;2.00;99.90;;;;;;5107294;28;20450;-83
2021/12/21 03:57:17;;;;;;;;;;;2.00;99.90;;;;;;5104799;28;20387;-83
2021/12/21 03:59:45;;;;;;;;;;;2.00;99.90;;;;;;5105970;28;19928;-83
2021/12/21 04:02:12;;;;;;;;;;;2.00;99.90;;;;;;5105831;28;19924;-83
2021/12/21 04:04:38;;;;;;;;;;;2.10;99.90;;;;;;5105656;28;19928;-83
2021/12/21 04:07:05;;;;;;;;;;;2.10;99.90;;;;;;5105549;28;19924;-83
2021/12/21 04:09:31;;;;;;;;;;;2.10;99.90;;;;;;5105521;28;19953;-83
2021/12/21 04:12:00;;;;;;;;;;;2.10;99.90;;;;;;5106195;28;19958;-82
2021/12/21 04:14:27;;;;;;;;;;;2.10;99.90;;;;;;5107173;28;19924;-82
2021/12/21 04:16:55;;;;;;;;;;;2.10;99.90;;;;;;5109515;28;19960;-82
2021/12/21 04:19:22;;;;;;;;;;;2.10;99.90;;;;;;5113432;28;19946;-82
2021/12/21 04:21:49;;;;;;;;;;;2.00;99.90;;;;;;5114353;28;19909;-82
2021/12/21 04:24:15;;;;;;;;;;;2.00;99.90;;;;;;5114668;28;19924;-82
2021/12/21 04:26:42;;;;;;;;;;;2.00;99.90;;;;;;5113028;28;19924;-82
2021/12/21 04:29:08;;;;;;;;;;;2.00;99.90;;;;;;5111536;28;19924;-82
2021/12/21 04:31:35;;;;;;;;;;;1.90;99.90;;;;;;5111979;28;19924;-82
2021/12/21 04:34:03;;;;;;;;;;;1.90;99.90;;;;;;5110681;28;19924;-81
2021/12/21 04:36:30;;;;;;;;;;;1.90;99.90;;;;;;5111919;28;19924;-82
2021/12/21 04:38:59;;;;;;;;;;;2.00;99.90;;;;;;5110309;28;20302;-82
2021/12/21 04:41:27;;;;;;;;;;;2.00;99.90;;;;;;5112355;28;19924;-82
2021/12/21 04:43:54;;;;;;;;;;;2.00;99.90;;;;;;5119425;28;19919;-82
2021/12/21 04:46:21;;;;;;;;;;;2.10;99.90;;;;;;5115086;28;19937;-82
2021/12/21 04:48:48;;;;;;;;;;;2.10;99.90;;;;;;5106864;28;20312;-82
2021/12/21 04:51:15;;;;;;;;;;;2.10;99.90;;;;;;5106115;28;19962;-82
2021/12/21 04:53:42;;;;;;;;;;;2.10;99.90;;;;;;5125171;22;19924;-88
2021/12/21 04:56:09;;;;;;;;;;;1.90;99.90;;;;;;5125337;28;19945;-88
2021/12/21 04:58:35;;;;;;;;;;;1.50;99.90;;;;;;5134310;28;19912;-86
2021/12/21 05:01:02;;;;;;;;;;;2.00;99.90;;;;;;5139788;28;20004;-87
2021/12/21 05:03:28;;;;;;;;;;;2.00;99.90;;;;;;5138677;28;19953;-88
2021/12/21 05:05:54;;;;;;;;;;;2.00;99.90;;;;;;5133908;28;19912;-87
2021/12/21 05:08:25;;;;;;;;;;;2.00;99.90;;;;;;5140484;28;19923;-87
2021/12/21 05:10:54;;;;;;;;;;;1.90;99.90;;;;;;5139390;28;19924;-87
2021/12/21 05:13:23;;;;;;;;;;;2.00;99.90;;;;;;5130543;28;19923;-87
2021/12/21 05:15:50;;;;;;;;;;;2.10;99.90;;;;;;5128046;28;19949;-87
2021/12/21 05:18:17;;;;;;;;;;;2.00;99.90;;;;;;5127370;28;19924;-89
2021/12/21 05:20:43;;;;;;;;;;;2.00;99.90;;;;;;5126558;28;19928;-87
2021/12/21 05:23:11;;;;;;;;;;;2.10;99.90;;;;;;5126199;28;19930;-89
2021/12/21 05:25:39;;;;;;;;;;;2.20;99.90;;;;;;5124597;28;19932;-88
2021/12/21 05:28:07;;;;;;;;;;;2.00;99.90;;;;;;5124316;28;20382;-89
2021/12/21 05:30:34;;;;;;;;;;;2.10;99.90;;;;;;5124377;28;19923;-87
2021/12/21 05:33:01;;;;;;;;;;;1.90;99.90;;;;;;5122902;28;19923;-89
2021/12/21 05:35:28;;;;;;;;;;;2.20;99.90;;;;;;5123242;28;19924;-87
2021/12/21 05:37:58;;;;;;;;;;;1.80;99.90;;;;;;5124285;28;19924;-88
2021/12/21 05:40:32;;;;;;;;;;;1.50;99.90;;;;;;5123327;28;19924;-87
2021/12/21 05:43:03;;;;;;;;;;;1.90;99.90;;;;;;5123340;27;19932;-87
2021/12/21 05:45:30;;;;;;;;;;;1.90;99.90;;;;;;5122359;28;19924;-87
2021/12/21 05:47:56;;;;;;;;;;;2.00;99.90;;;;;;5121940;27;19924;-88
2021/12/21 05:50:23;;;;;;;;;;;1.90;99.90;;;;;;5121897;28;19953;-88
2021/12/21 05:52:50;;;;;;;;;;;2.30;99.90;;;;;;5121929;28;19977;-88
2021/12/21 05:55:18;;;;;;;;;;;1.80;99.90;;;;;;5121698;28;19984;-88
2021/12/21 05:57:44;;;;;;;;;;;2.00;99.90;;;;;;5127787;28;19923;-88
2021/12/21 06:00:15;;;;;;;;;;;2.00;99.90;;;;;;5124436;28;19924;-87
2021/12/21 06:02:42;;;;;;;;;;;2.00;99.90;;;;;;5128460;27;19931;-88
2021/12/21 06:05:11;;;;;;;;;;;2.20;99.90;;;;;;5138129;28;19930;-88
2021/12/21 06:07:38;;;;;;;;;;;2.00;99.90;;;;;;5135495;28;19980;-88
2021/12/21 06:10:11;;;;;;;;;;;1.90;99.90;;;;;;5128648;28;19931;-89
2021/12/21 06:12:55;;;;;;;;;;;2.00;99.90;;;;;;5122710;28;19927;-88
2021/12/21 06:15:32;;;;;;;;;;;2.30;99.90;;;;;;5125851;28;19924;-89
2021/12/21 06:24:02;;;;;;;;;;;1.80;99.90;;;;;;5124387;28;19945;-88
2021/12/21 06:26:26;;;;;;;;;;;1.80;99.90;;;;;;5134688;28;19947;-86
2021/12/21 06:28:53;;;;;;;;;;;1.90;99.90;;;;;;5138444;28;19934;-87
2021/12/21 06:31:21;;;;;;;;;;;1.60;99.90;;;;;;5137131;28;19923;-87
2021/12/21 06:33:48;;;;;;;;;;;1.70;99.90;;;;;;5136210;28;19943;-86
2021/12/21 06:36:15;;;;;;;;;;;1.80;99.90;;;;;;5138210;28;19924;-85
2021/12/21 06:38:41;;;;;;;;;;;1.70;99.90;;;;;;5137558;28;19934;-87
2021/12/21 06:41:08;;;;;;;;;;;1.70;99.90;;;;;;5123565;28;19981;-85
2021/12/21 06:43:35;;;;;;;;;;;1.70;99.90;;;;;;5118563;28;19924;-87
2021/12/21 06:46:08;;;;;;;;;;;1.80;99.90;;;;;;5120407;28;19935;-86
2021/12/21 06:51:27;;;;;;;;;;;1.90;99.90;;;;;;5124776;28;19919;-87
2021/12/21 06:53:55;;;;;;;;;;;1.80;99.90;;;;;;5138322;28;19911;-85
2021/12/21 06:56:24;;;;;;;;;;;2.10;99.90;;;;;;5138997;28;19912;-83
2021/12/21 06:58:50;;;;;;;;;;;1.80;99.90;;;;;;5128422;28;19931;-84
2021/12/21 07:01:17;;;;;;;;;;;1.60;99.90;;;;;;5127042;28;19924;-88
2021/12/21 07:03:45;;;;;;;;;;;1.80;99.90;;;;;;5127088;28;20285;-89
2021/12/21 07:06:12;;;;;;;;;;;1.80;99.90;;;;;;5128720;28;19924;-87
2021/12/21 07:08:46;;;;;;;;;;;1.80;99.90;;;;;;5125533;28;19927;-87
2021/12/21 07:11:21;;;;;;;;;;;1.80;99.90;;;;;;5125253;28;19924;-87
2021/12/21 07:19:17;;;;;;;;;;;2.00;99.90;;;;;;5132631;28;19930;-86
2021/12/21 07:21:43;;;;;;;;;;;1.90;99.90;;;;;;5141937;28;19924;-86
2021/12/21 07:24:10;;;;;;;;;;;2.00;99.90;;;;;;5141997;28;19912;-83
2021/12/21 07:26:37;;;;;;;;;;;2.00;99.90;;;;;;5142606;28;19912;-83
2021/12/21 07:29:03;;;;;;;;;;;1.80;99.90;;;;;;5142250;28;19928;-84
2021/12/21 07:31:30;;;;;;;;;;;2.30;99.90;;;;;;5142832;28;19912;-83
2021/12/21 07:33:58;;;;;;;;;;;1.90;99.90;;;;;;5142689;28;19908;-85
2021/12/21 07:36:26;;;;;;;;;;;1.90;99.90;;;;;;5142673;28;19924;-87
2021/12/21 07:38:52;;;;;;;;;;;2.00;99.90;;;;;;5142370;28;20014;-85
2021/12/21 07:41:19;;;;;;;;;;;2.40;99.90;;;;;;5142363;28;19916;-82
2021/12/21 07:43:45;;;;;;;;;;;2.10;99.90;;;;;;5142154;28;19919;-85
2021/12/21 07:46:12;;;;;;;;;;;2.20;99.90;;;;;;5142535;28;19912;-84
2021/12/21 07:48:40;;;;;;;;;;;2.20;99.90;;;;;;5142356;28;19924;-84
2021/12/21 07:51:07;;;;;;;;;;;2.20;99.90;;;;;;5142152;28;19912;-83
2021/12/21 07:53:35;;;;;;;;;;;2.20;99.90;;;;;;5141592;28;19920;-83
2021/12/21 07:56:02;;;;;;;;;;;2.20;99.90;;;;;;5142107;28;19918;-84
2021/12/21 07:58:29;;;;;;;;;;;2.20;99.90;;;;;;5142000;27;19924;-84
2021/12/21 08:00:56;;;;;;;;;;;2.20;99.90;;;;;;5141984;28;19908;-83
2021/12/21 08:03:23;;;;;;;;;;;2.20;99.90;;;;;;5141892;28;19954;-84
2021/12/21 08:05:53;;;;;;;;;;;2.20;99.90;;;;;;5141528;27;19922;-84
2021/12/21 08:08:22;;;;;;;;;;;2.20;99.90;;;;;;5141647;28;19918;-89
2021/12/21 08:10:53;;;;;;;;;;;2.30;99.90;;;;;;5130304;28;20247;-77
2021/12/21 08:13:20;;;;;;;;;;;2.20;99.90;;;;;;5121921;28;19924;-75
2021/12/21 08:15:47;;;;;;;;;;;2.30;99.90;;;;;;5121966;28;19924;-76
2021/12/21 08:18:13;;;;;;;;;;;2.30;99.90;;;;;;5122636;28;19924;-77
2021/12/21 08:20:40;;;;;;;;;;;2.30;99.90;;;;;;5123315;28;19924;-78
2021/12/21 08:23:07;;;;;;;;;;;2.30;99.90;;;;;;5136606;28;19924;-78
2021/12/21 08:25:34;;;;;;;;;;;2.30;99.90;;;;;;5141298;27;19933;-85
2021/12/21 08:28:08;;;;;;;;;;;2.30;99.90;;;;;;5136895;27;19923;-88
2021/12/21 08:30:36;;;;;;;;;;;2.20;99.90;;;;;;5137812;28;19928;-87
2021/12/21 09:38:26;;;;;;;;;;;0.90;99.90;;;;;;4940815;28;19969;-88
2021/12/21 09:44:52;;;;;;;;;;;3.20;99.90;;;;;;5150557;22;19909;-92
2021/12/21 10:07:34;;;;;;;;;;;2.20;99.90;;;;;;5008383;28;19920;-89
2021/12/21 10:28:40;;;;;;;;;;;2.30;99.90;;;;;;4939982;29;20061;-89
2021/12/21 10:34:20;;;;;;;;;;;2.30;99.90;;;;;;4948156;29;19942;-88
2021/12/21 10:47:54;;;;;;;;;;;2.30;99.90;;;;;;5037738;28;19925;-89
2021/12/21 10:50:34;;;;;;;;;;;6.20;99.90;;;;;;5043169;28;19933;-89
2021/12/21 10:53:16;;;;;;;;;;;2.50;99.90;;;;;;5039050;28;19932;-87
2021/12/21 11:01:27;;;;;;;;;;;2.40;99.90;;;;;;5061618;22;19991;-81
2021/12/21 11:03:56;;;;;;;;;;;2.30;99.90;;;;;;5026237;28;19965;-81
2021/12/21 11:06:26;;;;;;;;;;;2.30;99.90;;;;;;5028359;28;19988;-81
2021/12/21 11:08:54;;;;;;;;;;;2.30;99.90;;;;;;5024723;28;19925;-81
2021/12/21 11:11:22;;;;;;;;;;;2.20;99.90;;;;;;5025346;28;19935;-81
2021/12/21 11:13:58;;;;;;;;;;;2.40;99.90;;;;;;5027029;28;19937;-81
2021/12/21 11:16:27;;;;;;;;;;;1.90;99.90;;;;;;5024386;28;19926;-81
2021/12/21 11:18:53;;;;;;;;;;;2.00;99.90;;;;;;5025673;28;19925;-82
2021/12/21 11:21:20;;;;;;;;;;;2.20;99.90;;;;;;5023415;28;20304;-82
2021/12/21 11:23:48;;;;;;;;;;;2.30;99.90;;;;;;5027283;28;19926;-81
2021/12/21 11:26:14;;;;;;;;;;;2.40;99.90;;;;;;5033619;28;19925;-80
2021/12/21 11:28:41;;;;;;;;;;;2.40;99.90;;;;;;5029144;28;19925;-81
2021/12/21 11:31:08;;;;;;;;;;;2.00;99.90;;;;;;5026782;28;19929;-81
2021/12/21 11:33:41;;;;;;;;;;;2.50;99.90;;;;;;5026117;28;20384;-81
2021/12/21 11:38:54;;;;;;;;;;;2.30;99.90;;;;;;5026880;28;19929;-81
2021/12/21 11:41:21;;;;;;;;;;;2.20;99.90;;;;;;5029050;28;19933;-82
2021/12/21 11:43:51;;;;;;;;;;;2.20;99.90;;;;;;5028894;28;19961;-82
2021/12/21 11:46:25;;;;;;;;;;;2.20;99.90;;;;;;5025485;28;19948;-82
2021/12/21 11:48:53;;;;;;;;;;;2.40;99.90;;;;;;5025663;28;19926;-82
2021/12/21 11:51:24;;;;;;;;;;;2.30;99.90;;;;;;5028255;28;19926;-82
2021/12/21 11:53:50;;;;;;;;;;;2.40;99.90;;;;;;5028825;28;19929;-82
2021/12/21 11:56:20;;;;;;;;;;;2.60;99.90;;;;;;5028610;28;19926;-82
2021/12/21 11:58:49;;;;;;;;;;;2.50;99.90;;;;;;5030666;28;19925;-82
2021/12/21 12:01:19;;;;;;;;;;;2.20;99.90;;;;;;5029657;28;19929;-82
2021/12/21 12:03:54;;;;;;;;;;;2.30;99.90;;;;;;5028734;28;19989;-82
2021/12/21 12:06:21;;;;;;;;;;;2.50;99.90;;;;;;5029318;28;19925;-82
2021/12/21 12:08:49;;;;;;;;;;;2.70;99.90;;;;;;5029252;28;19925;-82
2021/12/21 12:11:24;;;;;;;;;;;2.60;99.90;;;;;;5028730;28;20025;-83
2021/12/21 12:13:50;;;;;;;;;;;2.60;99.90;;;;;;5027700;28;19926;-81
2021/12/21 12:16:17;;;;;;;;;;;2.60;99.90;;;;;;5026909;28;19949;-81
2021/12/21 12:18:45;;;;;;;;;;;2.50;99.90;;;;;;5027162;28;19925;-81
2021/12/21 12:21:13;;;;;;;;;;;2.50;99.90;;;;;;5028063;28;20312;-82
2021/12/21 12:23:43;;;;;;;;;;;2.60;99.90;;;;;;5027027;28;19953;-81
2021/12/21 12:26:20;;;;;;;;;;;2.60;99.90;;;;;;5028350;28;19949;-81
2021/12/21 12:28:48;;;;;;;;;;;2.60;99.90;;;;;;5028953;28;19936;-81
2021/12/21 12:31:26;;;;;;;;;;;2.60;99.90;;;;;;5026785;28;19936;-80
2021/12/21 12:33:53;;;;;;;;;;;2.70;99.90;;;;;;5026262;28;19952;-82
2021/12/21 12:36:19;;;;;;;;;;;2.50;99.90;;;;;;5028137;28;19972;-81
2021/12/21 12:38:47;;;;;;;;;;;2.30;99.90;;;;;;5031559;28;19936;-79
2021/12/21 12:41:14;;;;;;;;;;;2.40;99.90;;;;;;5032927;28;19925;-80
2021/12/21 12:43:41;;;;;;;;;;;2.40;99.90;;;;;;5034268;28;19926;-81
2021/12/21 12:46:10;;;;;;;;;;;2.40;99.90;;;;;;5035098;28;19925;-81
2021/12/21 12:48:39;;;;;;;;;;;2.30;99.90;;;;;;5033693;28;19925;-81
2021/12/21 12:51:07;;;;;;;;;;;2.20;99.90;;;;;;5033566;28;19932;-82
2021/12/21 12:53:37;;;;;;;;;;;2.30;99.90;;;;;;5034064;28;19952;-81
2021/12/21 12:56:04;;;;;;;;;;;2.30;99.90;;;;;;5035895;28;19936;-82
2021/12/21 12:58:31;;;;;;;;;;;2.40;99.90;;;;;;5033083;28;19926;-81
2021/12/21 13:01:00;;;;;;;;;;;2.30;99.90;;;;;;5032106;28;19925;-81
2021/12/21 13:03:35;;;;;;;;;;;2.30;99.90;;;;;;5034272;28;19925;-81
2021/12/21 13:06:07;;;;;;;;;;;2.40;99.90;;;;;;5035886;28;19940;-81
2021/12/21 13:08:34;;;;;;;;;;;2.20;99.90;;;;;;5039227;28;19925;-80
2021/12/21 13:11:01;;;;;;;;;;;2.40;99.90;;;;;;5039317;28;19965;-81
2021/12/21 13:13:34;;;;;;;;;;;2.20;99.90;;;;;;5039198;28;19929;-80
2021/12/21 13:16:04;;;;;;;;;;;2.10;99.90;;;;;;5039270;28;19926;-81
2021/12/21 13:18:31;;;;;;;;;;;2.00;99.90;;;;;;5039070;28;19936;-81
2021/12/21 13:21:00;;;;;;;;;;;1.90;99.90;;;;;;5036907;28;19932;-80
2021/12/21 13:23:29;;;;;;;;;;;1.90;99.90;;;;;;5035893;28;19936;-81
2021/12/21 13:25:57;;;;;;;;;;;2.20;99.90;;;;;;5034719;28;19972;-82
2021/12/21 13:28:23;;;;;;;;;;;2.10;99.90;;;;;;5031776;28;19953;-81
2021/12/21 13:30:54;;;;;;;;;;;2.10;99.90;;;;;;5035606;28;19972;-81
2021/12/21 13:33:23;;;;;;;;;;;2.20;99.90;;;;;;5028158;28;19951;-81
2021/12/21 13:35:50;;;;;;;;;;;2.10;99.90;;;;;;5025123;28;19925;-82
2021/12/21 13:38:21;;;;;;;;;;;2.00;99.90;;;;;;5024024;28;19926;-82
2021/12/21 13:40:58;;;;;;;;;;;2.00;99.90;;;;;;5025904;28;19925;-83
2021/12/21 13:43:24;;;;;;;;;;;1.90;99.90;;;;;;5023642;28;19932;-82
2021/12/21 13:45:56;;;;;;;;;;;2.00;99.90;;;;;;5024159;28;19925;-82
2021/12/21 13:48:23;;;;;;;;;;;2.00;99.90;;;;;;5024939;28;19961;-83
2021/12/21 13:50:51;;;;;;;;;;;1.90;99.90;;;;;;5023992;28;19997;-82
2021/12/21 13:53:20;;;;;;;;;;;1.90;99.90;;;;;;5022835;28;19993;-83
2021/12/21 13:55:49;;;;;;;;;;;1.90;99.90;;;;;;5023380;28;19925;-82
2021/12/21 13:58:19;;;;;;;;;;;1.90;99.90;;;;;;5022727;28;20016;-82
2021/12/21 14:00:47;;;;;;;;;;;1.90;99.90;;;;;;5022384;28;19933;-84
2021/12/21 14:03:21;;;;;;;;;;;1.90;99.90;;;;;;5023379;28;19940;-82
2021/12/21 14:05:54;;;;;;;;;;;1.90;99.90;;;;;;5026305;28;20026;-82
2021/12/21 14:08:22;;;;;;;;;;;1.90;99.90;;;;;;5034372;28;19949;-82
2021/12/21 14:10:50;;;;;;;;;;;1.80;99.90;;;;;;5033197;28;19925;-80
2021/12/21 14:13:17;;;;;;;;;;;1.90;99.90;;;;;;5031918;28;20467;-82
2021/12/21 14:15:45;;;;;;;;;;;1.80;99.90;;;;;;5035083;28;19929;-81
2021/12/21 14:18:18;;;;;;;;;;;1.80;99.90;;;;;;5035829;28;19926;-82
2021/12/21 14:20:46;;;;;;;;;;;1.90;99.90;;;;;;5036451;28;19993;-81
2021/12/21 14:23:17;;;;;;;;;;;1.80;99.90;;;;;;5037620;28;19917;-82
2021/12/21 14:25:44;;;;;;;;;;;1.80;99.90;;;;;;5038380;28;19921;-82
2021/12/21 14:28:12;;;;;;;;;;;1.90;99.90;;;;;;5038840;28;19909;-81
2021/12/21 14:30:38;;;;;;;;;;;1.90;99.90;;;;;;5038144;28;19925;-81
2021/12/21 14:33:09;;;;;;;;;;;1.80;99.90;;;;;;5036136;28;19926;-82
2021/12/21 14:35:39;;;;;;;;;;;1.90;99.90;;;;;;5032035;28;19952;-81
2021/12/21 14:38:10;;;;;;;;;;;1.90;99.90;;;;;;5028685;28;19925;-82
2021/12/21 14:40:42;;;;;;;;;;;1.90;99.90;;;;;;5031341;28;19926;-81
2021/12/21 14:43:19;;;;;;;;;;;1.90;99.90;;;;;;5034155;28;19956;-82
2021/12/21 14:45:46;;;;;;;;;;;1.90;99.90;;;;;;5033806;28;19925;-81
2021/12/21 14:48:14;;;;;;;;;;;1.90;99.90;;;;;;5031942;28;19932;-82
2021/12/21 14:50:47;;;;;;;;;;;1.90;99.90;;;;;;5033138;28;19949;-81
2021/12/21 14:53:15;;;;;;;;;;;2.00;99.90;;;;;;5033807;28;19937;-81
2021/12/21 14:55:41;;;;;;;;;;;1.90;99.90;;;;;;5034437;28;19925;-80
2021/12/21 14:58:10;;;;;;;;;;;1.80;99.90;;;;;;5035479;28;19925;-81
2021/12/21 15:00:41;;;;;;;;;;;1.80;99.90;;;;;;5035612;28;19975;-79
2021/12/21 15:03:09;;;;;;;;;;;1.70;99.90;;;;;;5036548;28;19925;-81
2021/12/21 15:05:37;;;;;;;;;;;1.60;99.90;;;;;;5034235;28;19952;-81
2021/12/21 15:08:04;;;;;;;;;;;1.60;99.90;;;;;;5031853;28;19929;-81
2021/12/21 15:10:32;;;;;;;;;;;1.70;99.90;;;;;;5028589;28;19926;-82
2021/12/21 15:12:59;;;;;;;;;;;1.70;99.90;;;;;;5027655;28;20408;-81
2021/12/21 15:15:26;;;;;;;;;;;1.50;99.90;;;;;;5023791;28;19925;-81
2021/12/21 15:17:54;;;;;;;;;;;1.50;99.90;;;;;;5024837;28;19925;-82
2021/12/21 15:20:23;;;;;;;;;;;1.50;99.90;;;;;;5029181;28;19971;-81
2021/12/21 15:22:50;;;;;;;;;;;1.50;99.90;;;;;;5032187;28;19925;-81
2021/12/21 15:25:16;;;;;;;;;;;1.50;99.90;;;;;;5031294;28;19925;-80
2021/12/21 15:27:44;;;;;;;;;;;1.50;99.90;;;;;;5034352;28;19930;-82
2021/12/21 15:30:11;;;;;;;;;;;1.50;99.90;;;;;;5030774;28;19932;-82
2021/12/21 15:32:38;;;;;;;;;;;1.60;99.90;;;;;;5031498;28;19926;-81
2021/12/21 15:35:08;;;;;;;;;;;1.60;99.90;;;;;;5033545;28;19975;-81
2021/12/21 15:37:34;;;;;;;;;;;1.60;99.90;;;;;;5030923;28;20517;-82
2021/12/21 15:40:01;;;;;;;;;;;1.60;99.90;;;;;;5031250;28;19952;-81
2021/12/21 15:42:30;;;;;;;;;;;1.70;99.90;;;;;;5030754;28;19925;-82
2021/12/21 15:44:57;;;;;;;;;;;1.50;99.90;;;;;;5031944;28;19926;-81
2021/12/21 15:47:24;;;;;;;;;;;1.60;99.90;;;;;;5032457;28;19936;-82
2021/12/21 15:49:51;;;;;;;;;;;1.50;99.90;;;;;;5032467;28;19948;-82
2021/12/21 15:52:20;;;;;;;;;;;1.50;99.90;;;;;;5029186;28;19925;-82
2021/12/21 15:54:46;;;;;;;;;;;1.50;99.90;;;;;;5030132;28;19956;-82
2021/12/21 15:57:13;;;;;;;;;;;1.50;99.90;;;;;;5031497;28;19925;-82
2021/12/21 15:59:41;;;;;;;;;;;1.50;99.90;;;;;;5031268;28;19925;-81
2021/12/21 16:02:10;;;;;;;;;;;1.70;99.90;;;;;;5030063;28;19925;-81
2021/12/21 16:04:37;;;;;;;;;;;1.60;99.90;;;;;;5031388;28;19949;-82
2021/12/21 16:07:04;;;;;;;;;;;1.70;99.90;;;;;;5031148;28;19929;-81
2021/12/21 16:09:32;;;;;;;;;;;1.70;99.90;;;;;;5029849;28;19926;-81
2021/12/21 16:11:58;;;;;;;;;;;1.60;99.90;;;;;;5029251;28;19925;-82
2021/12/21 16:14:25;;;;;;;;;;;1.60;99.90;;;;;;5037362;28;19920;-82
2021/12/21 16:16:55;;;;;;;;;;;1.50;99.90;;;;;;5038654;28;19926;-82
2021/12/21 16:19:22;;;;;;;;;;;1.50;99.90;;;;;;5035899;28;19989;-82
2021/12/21 16:21:53;;;;;;;;;;;1.50;99.90;;;;;;5036861;28;19925;-81
2021/12/21 16:24:19;;;;;;;;;;;1.50;99.90;;;;;;5034691;28;19965;-82
2021/12/21 16:26:47;;;;;;;;;;;1.60;99.90;;;;;;5033233;28;19925;-81
2021/12/21 16:29:14;;;;;;;;;;;1.50;99.90;;;;;;5032185;28;20385;-81
2021/12/21 16:31:40;;;;;;;;;;;1.40;99.90;;;;;;5031881;28;19925;-81
2021/12/21 16:34:07;;;;;;;;;;;1.40;99.90;;;;;;5030625;28;20405;-80
2021/12/21 16:36:36;;;;;;;;;;;1.50;99.90;;;;;;5031951;28;19975;-81
2021/12/21 16:39:04;;;;;;;;;;;1.50;99.90;;;;;;5032478;28;19925;-82
2021/12/21 16:41:30;;;;;;;;;;;1.60;99.90;;;;;;5032579;28;19926;-81
2021/12/21 16:44:01;;;;;;;;;;;1.40;99.90;;;;;;5033049;28;20301;-81
2021/12/21 16:46:28;;;;;;;;;;;1.50;99.90;;;;;;5033782;28;19926;-80
2021/12/21 16:48:55;;;;;;;;;;;1.60;99.90;;;;;;5034233;28;19992;-80
2021/12/21 16:51:23;;;;;;;;;;;1.70;99.90;;;;;;5032784;28;19932;-81
2021/12/21 16:53:49;;;;;;;;;;;1.70;99.90;;;;;;5032363;28;19925;-80
2021/12/21 16:56:16;;;;;;;;;;;1.70;99.90;;;;;;5031200;28;19931;-82
2021/12/21 16:58:42;;;;;;;;;;;1.50;99.90;;;;;;5031550;28;19926;-81
2021/12/21 17:01:59;;;;;;;;;;;1.60;99.90;;;;;;5117141;22;19957;-86
2021/12/21 18:01:41;;;;;;;;;;;1.20;99.90;;;;;;4997538;28;19926;-85
2021/12/21 18:10:36;;;;;;;;;;;1.20;99.90;;;;;;5040529;22;19969;-81
2021/12/21 18:13:03;;;;;;;;;;;1.30;99.90;;;;;;5032134;28;19940;-81
2021/12/21 18:15:29;;;;;;;;;;;1.40;99.90;;;;;;5034037;28;19937;-83
2021/12/21 18:17:57;;;;;;;;;;;1.30;99.90;;;;;;5033759;28;19952;-82
2021/12/21 18:20:24;;;;;;;;;;;1.50;99.90;;;;;;5033713;28;19929;-83